Time;durP1;ratioP1;P1;durP2;ratioP2;P2;SDS_P1;SDS_P2;PMS_P1;PMS_P2;Temp;Humidity;BMP_temperature;BMP_pressure;BME280_temperature;BME280_humidity;BME280_pressure;Samples;Min_cycle;Max_cycle;Signal;HPM_P1;HPM_P2
2022/08/17 00:00:44;;;;;;;18.55;14.85;;;;;;;28.20;43.79;101092.00;5034372;28;20037;-75
2022/08/17 00:03:14;;;;;;;18.88;15.38;;;;;;;28.27;43.81;101081.22;5034184;28;20041;-76
2022/08/17 00:06:13;;;;;;;16.58;14.85;;;;;;;28.11;44.51;101090.47;5034200;28;20041;-75
2022/08/17 00:08:42;;;;;;;18.95;15.57;;;;;;;28.08;44.15;101097.47;5032142;28;20038;-76
2022/08/17 00:11:12;;;;;;;18.48;15.30;;;;;;;28.13;44.56;101088.16;5023196;28;20041;-74
2022/08/17 00:13:42;;;;;;;19.13;17.15;;;;;;;28.05;44.37;101095.34;5034961;28;20106;-73
2022/08/17 00:16:19;;;;;;;18.33;16.42;;;;;;;28.06;44.39;101097.00;5026101;28;20532;-73
2022/08/17 00:18:45;;;;;;;20.73;16.83;;;;;;;27.89;45.48;101093.50;5015531;28;20427;-73
2022/08/17 00:21:12;;;;;;;23.55;17.67;;;;;;;28.03;45.09;101094.09;5015225;28;20073;-73
2022/08/17 00:23:40;;;;;;;20.75;17.50;;;;;;;27.84;45.71;101083.44;5014603;28;20042;-74
2022/08/17 00:26:06;;;;;;;24.98;19.20;;;;;;;27.63;46.09;101077.91;5015273;28;20126;-74
2022/08/17 00:28:31;;;;;;;26.55;21.20;;;;;;;27.41;46.61;101074.59;5014898;28;20069;-74
2022/08/17 00:30:58;;;;;;;22.17;19.83;;;;;;;27.60;46.32;101080.50;5015516;28;20025;-74
2022/08/17 00:33:29;;;;;;;23.60;19.70;;;;;;;27.78;46.06;101084.78;5015195;28;20032;-74
2022/08/17 00:35:57;;;;;;;26.30;20.10;;;;;;;27.88;46.07;101083.59;5014767;28;20049;-74
2022/08/17 00:38:23;;;;;;;21.95;19.58;;;;;;;27.85;45.80;101090.59;5014500;28;20856;-74
2022/08/17 00:40:53;;;;;;;24.52;20.83;;;;;;;27.88;46.30;101081.63;5014577;28;20025;-74
2022/08/17 00:43:41;;;;;;;22.52;20.13;;;;;;;27.81;46.13;101093.22;5014523;28;20107;-74
2022/08/17 00:46:12;;;;;;;23.08;20.65;;;;;;;27.85;46.28;101090.59;5015082;28;20040;-74
2022/08/17 00:48:38;;;;;;;23.77;20.75;;;;;;;27.83;46.68;101092.09;5014571;28;20034;-74
2022/08/17 00:51:22;;;;;;;26.55;22.40;;;;;;;27.87;46.55;101099.38;5014119;28;20096;-75
2022/08/17 00:53:56;;;;;;;24.85;20.83;;;;;;;27.89;46.68;101094.31;5013841;28;20049;-75
2022/08/17 00:56:30;;;;;;;25.30;20.65;;;;;;;27.95;46.06;101092.19;5014372;28;20084;-75
2022/08/17 00:58:56;;;;;;;26.92;21.77;;;;;;;27.91;46.13;101094.78;5014434;28;20038;-74
2022/08/17 01:01:23;;;;;;;27.00;21.98;;;;;;;27.83;46.33;101093.69;5014311;28;20030;-76
2022/08/17 01:03:51;;;;;;;24.33;21.77;;;;;;;27.96;46.37;101096.56;5015079;28;20034;-74
2022/08/17 01:06:17;;;;;;;30.65;22.92;;;;;;;27.92;46.62;101087.28;5014206;28;20520;-74
2022/08/17 01:08:43;;;;;;;24.73;21.75;;;;;;;27.93;46.75;101084.19;5014152;28;20084;-74
2022/08/17 01:11:09;;;;;;;31.40;22.65;;;;;;;27.82;47.20;101085.75;5012163;28;20048;-74
2022/08/17 01:13:39;;;;;;;29.63;24.20;;;;;;;27.92;46.93;101079.81;5014182;28;20034;-75
2022/08/17 01:16:14;;;;;;;28.15;23.20;;;;;;;27.83;46.79;101077.09;5014363;28;20034;-75
2022/08/17 01:18:40;;;;;;;23.83;21.10;;;;;;;27.78;46.82;101073.75;5014312;28;20049;-76
2022/08/17 01:21:14;;;;;;;29.80;24.02;;;;;;;27.58;47.89;101068.97;5013599;28;20132;-74
2022/08/17 01:23:41;;;;;;;31.02;24.38;;;;;;;27.75;47.37;101072.44;5013132;28;20426;-75
2022/08/17 01:26:06;;;;;;;30.60;24.92;;;;;;;27.53;47.96;101070.00;5013822;28;20117;-74
2022/08/17 01:28:34;;;;;;;30.77;25.48;;;;;;;27.57;48.49;101062.66;5013943;28;20064;-75
2022/08/17 01:31:02;;;;;;;38.17;25.35;;;;;;;27.41;48.44;101063.56;5014123;28;20537;-75
2022/08/17 01:33:28;;;;;;;32.60;25.80;;;;;;;27.53;48.15;101064.47;5031951;28;20048;-73
2022/08/17 01:35:54;;;;;;;29.52;26.33;;;;;;;27.35;48.74;101051.06;5033487;28;20029;-74
2022/08/17 01:38:19;;;;;;;35.67;27.63;;;;;;;27.24;48.70;101052.56;5033358;28;20083;-74
2022/08/17 01:40:50;;;;;;;30.15;26.92;;;;;;;27.29;48.58;101055.94;5033159;28;20478;-75
2022/08/17 01:43:23;;;;;;;32.42;26.63;;;;;;;27.37;48.58;101062.59;5033168;28;20045;-74
2022/08/17 01:45:52;;;;;;;38.10;27.38;;;;;;;27.38;49.04;101055.94;5033696;28;20025;-75
2022/08/17 01:48:18;;;;;;;33.20;28.15;;;;;;;27.31;48.97;101058.38;5033253;28;20440;-73
2022/08/17 01:50:47;;;;;;;33.97;29.17;;;;;;;27.17;49.31;101055.84;5033550;28;20460;-74
2022/08/17 01:53:33;;;;;;;35.72;28.65;;;;;;;27.18;49.02;101048.38;5032673;28;20042;-75
2022/08/17 01:56:06;;;;;;;34.45;27.98;;;;;;;27.19;49.18;101063.78;5033257;28;20040;-74
2022/08/17 01:58:34;;;;;;;31.02;27.63;;;;;;;27.34;49.17;101069.56;5033498;28;20037;-75
2022/08/17 02:00:59;;;;;;;40.72;28.08;;;;;;;27.24;49.06;101069.94;5015578;28;20087;-74
2022/08/17 02:03:25;;;;;;;36.47;29.08;;;;;;;27.31;49.10;101070.22;5015474;28;20042;-74
2022/08/17 02:05:52;;;;;;;35.47;28.55;;;;;;;27.42;49.01;101071.50;5033270;28;20420;-73
2022/08/17 02:08:19;;;;;;;34.72;28.23;;;;;;;27.44;49.12;101076.72;5033290;28;20038;-74
2022/08/17 02:10:45;;;;;;;32.13;27.10;;;;;;;27.50;48.80;101067.88;5032531;28;20047;-74
2022/08/17 02:13:11;;;;;;;36.75;29.50;;;;;;;27.31;49.70;101069.41;5034048;28;20045;-75
2022/08/17 02:15:36;;;;;;;32.85;29.35;;;;;;;27.36;49.77;101067.28;5032617;28;20040;-74
2022/08/17 02:18:04;;;;;;;30.33;26.90;;;;;;;27.37;49.47;101068.13;5013558;28;20041;-74
2022/08/17 02:20:30;;;;;;;35.25;29.60;;;;;;;27.48;49.13;101069.34;5001799;28;20134;-75
2022/08/17 02:22:58;;;;;;;35.17;29.52;;;;;;;27.40;49.50;101064.72;4994118;28;20042;-74
2022/08/17 02:25:24;;;;;;;31.70;27.73;;;;;;;27.34;49.45;101057.75;4994303;28;20529;-76
2022/08/17 02:27:50;;;;;;;34.38;29.10;;;;;;;27.26;49.29;101055.81;4996118;28;20072;-75
2022/08/17 02:30:16;;;;;;;35.20;29.30;;;;;;;27.25;50.07;101052.22;4997821;28;20049;-74
2022/08/17 02:32:42;;;;;;;35.53;29.27;;;;;;;27.25;50.00;101049.47;4995786;28;20047;-75
2022/08/17 02:35:08;;;;;;;36.25;29.88;;;;;;;27.39;49.14;101039.03;4995240;28;20057;-75
2022/08/17 02:37:34;;;;;;;33.67;29.92;;;;;;;27.13;50.53;101038.31;4996454;28;20469;-75
2022/08/17 02:40:02;;;;;;;36.25;29.73;;;;;;;27.21;50.29;101043.00;4979907;28;20026;-75
2022/08/17 02:42:37;;;;;;;37.42;32.38;;;;;;;27.01;50.79;101045.69;4992660;28;20046;-75
2022/08/17 02:45:05;;;;;;;41.55;30.02;;;;;;;26.93;51.05;101041.78;4992681;28;20040;-73
2022/08/17 02:47:30;;;;;;;43.30;32.35;;;;;;;27.01;50.63;101045.69;4992640;28;20045;-74
2022/08/17 02:49:56;;;;;;;41.65;34.38;;;;;;;26.90;51.55;101036.94;4992728;28;20030;-73
2022/08/17 02:52:22;;;;;;;41.70;34.08;;;;;;;26.93;51.79;101041.78;4992832;28;20491;-72
2022/08/17 02:54:48;;;;;;;48.28;35.03;;;;;;;27.09;51.22;101047.56;4993084;28;20018;-72
2022/08/17 02:57:13;;;;;;;40.85;33.88;;;;;;;27.20;51.32;101046.91;4975047;28;20039;-72
2022/08/17 02:59:39;;;;;;;44.97;36.08;;;;;;;27.20;50.75;101037.81;4992863;28;20438;-74
2022/08/17 03:02:06;;;;;;;42.58;34.72;;;;;;;27.03;51.23;101032.38;4975137;28;20386;-75
2022/08/17 03:04:32;;;;;;;45.78;36.05;;;;;;;26.99;52.28;101036.94;4974936;28;20101;-73
2022/08/17 03:06:58;;;;;;;44.30;36.50;;;;;;;27.16;51.40;101029.38;4991859;28;20030;-73
2022/08/17 03:09:23;;;;;;;43.97;34.65;;;;;;;27.29;51.12;101033.03;4990878;28;20049;-73
2022/08/17 03:11:50;;;;;;;43.45;35.83;;;;;;;27.25;51.40;101037.63;4992083;28;20045;-75
2022/08/17 03:14:16;;;;;;;41.17;35.65;;;;;;;26.88;51.75;101034.53;4992327;28;20039;-74
2022/08/17 03:16:41;;;;;;;42.58;34.17;;;;;;;26.54;52.93;101031.81;5005075;28;20038;-74
2022/08/17 03:19:06;;;;;;;42.72;35.20;;;;;;;26.98;51.66;101030.59;5012560;28;20096;-73
2022/08/17 03:21:32;;;;;;;46.72;36.60;;;;;;;26.98;51.53;101036.09;5011415;28;20060;-74
2022/08/17 03:24:14;;;;;;;41.97;35.25;;;;;;;26.90;52.13;101031.44;5014799;28;20061;-73
2022/08/17 03:26:39;;;;;;;47.97;35.90;;;;;;;26.90;51.99;101031.44;4997031;28;20034;-74
2022/08/17 03:29:05;;;;;;;52.92;36.45;;;;;;;27.01;51.76;101038.19;5015264;28;20053;-74
2022/08/17 03:31:30;;;;;;;43.63;35.60;;;;;;;27.20;51.00;101033.09;5014951;28;20112;-74
2022/08/17 03:33:56;;;;;;;41.65;34.72;;;;;;;27.15;50.97;101029.69;5015661;28;20041;-74
2022/08/17 03:36:22;;;;;;;43.35;35.50;;;;;;;27.06;51.52;101038.03;5014447;28;20034;-74
2022/08/17 03:38:47;;;;;;;48.92;36.47;;;;;;;26.91;51.51;101038.56;5014409;28;20458;-74
2022/08/17 03:41:12;;;;;;;47.47;35.42;;;;;;;26.92;51.90;101027.22;4996836;28;20052;-75
2022/08/17 03:43:38;;;;;;;47.05;36.58;;;;;;;26.97;51.41;101040.00;5015414;28;20033;-73
2022/08/17 03:57:06;;;;;;;43.58;36.22;;;;;;;27.28;50.45;101048.00;5015167;28;20524;-75
2022/08/17 03:59:33;;;;;;;42.63;34.70;;;;;;;27.21;50.79;101042.19;5015314;28;20033;-73
2022/08/17 04:02:03;;;;;;;42.63;34.70;;;;;;;27.20;50.01;101046.09;5013140;28;20508;-72
2022/08/17 04:04:29;;;;;;;43.00;34.47;;;;;;;27.15;50.42;101040.75;5014714;28;20041;-75
2022/08/17 04:06:55;;;;;;;43.80;34.38;;;;;;;27.23;50.62;101039.91;5014949;28;20069;-72
2022/08/17 04:09:38;;;;;;;46.53;36.17;;;;;;;26.92;51.23;101043.75;5011861;28;20092;-74
2022/08/17 04:12:04;;;;;;;41.38;33.75;;;;;;;26.91;51.32;101042.13;5014326;28;20053;-74
2022/08/17 04:14:34;;;;;;;41.38;33.85;;;;;;;27.06;50.95;101039.97;5014390;28;20030;-76
2022/08/17 04:17:02;;;;;;;45.00;35.22;;;;;;;27.24;50.30;101042.34;5016883;28;20053;-74
2022/08/17 04:19:27;;;;;;;46.55;34.72;;;;;;;27.10;50.73;101036.22;5013175;28;20058;-73
2022/08/17 04:21:53;;;;;;;41.88;33.67;;;;;;;27.15;51.03;101038.78;5015095;28;20042;-74
2022/08/17 04:24:18;;;;;;;46.15;34.53;;;;;;;27.15;50.69;101038.78;5014630;28;20038;-73
2022/08/17 04:26:43;;;;;;;46.85;34.95;;;;;;;27.08;50.81;101048.72;5014443;28;20273;-73
2022/08/17 04:29:09;;;;;;;46.25;35.13;;;;;;;27.11;51.18;101046.13;5014502;28;20042;-74
2022/08/17 04:31:35;;;;;;;44.05;36.55;;;;;;;26.81;51.89;101047.22;4996591;28;20034;-74
2022/08/17 04:34:02;;;;;;;47.67;36.78;;;;;;;26.77;52.01;101049.00;5014235;28;20030;-75
2022/08/17 04:36:28;;;;;;;45.20;36.70;;;;;;;27.05;51.28;101050.19;5014500;28;20042;-73
2022/08/17 04:38:53;;;;;;;50.90;37.50;;;;;;;27.09;51.61;101050.34;5014558;28;20517;-73
2022/08/17 04:44:03;;;;;;;50.83;38.85;;;;;;;27.15;51.17;101066.38;5014223;28;20590;-74
2022/08/17 04:46:32;;;;;;;42.35;37.50;;;;;;;27.01;52.11;101060.25;5012595;28;20128;-73
2022/08/17 04:48:58;;;;;;;48.60;36.97;;;;;;;26.87;52.39;101067.94;5014622;28;20040;-74
2022/08/17 04:51:30;;;;;;;43.13;37.33;;;;;;;26.82;52.56;101074.44;5014136;28;20038;-73
2022/08/17 04:53:59;;;;;;;48.72;38.85;;;;;;;26.88;52.54;101073.13;5014414;28;20034;-75
2022/08/17 04:56:26;;;;;;;46.92;38.05;;;;;;;26.78;52.81;101079.00;5014240;28;20493;-74
2022/08/17 04:58:54;;;;;;;51.70;39.55;;;;;;;26.75;52.74;101085.16;5014235;28;20049;-74
2022/08/17 05:01:22;;;;;;;45.42;38.17;;;;;;;26.45;53.99;101088.91;5014360;28;20022;-73
2022/08/17 05:03:47;;;;;;;49.67;39.00;;;;;;;25.95;55.53;101090.44;4996842;28;20040;-74
2022/08/17 05:06:13;;;;;;;49.03;38.72;;;;;;;25.62;56.94;101086.47;4998692;28;20506;-73
2022/08/17 05:08:39;;;;;;;48.40;39.65;;;;;;;26.14;55.21;101090.19;4999859;28;20042;-71
2022/08/17 05:11:04;;;;;;;47.13;38.15;;;;;;;25.24;58.01;101075.13;5013698;28;20052;-74
2022/08/17 05:13:30;;;;;;;48.08;39.58;;;;;;;25.01;59.16;101084.56;5014148;28;20497;-72
2022/08/17 05:15:58;;;;;;;52.30;40.53;;;;;;;26.20;55.17;101092.44;5014327;28;20100;-72
2022/08/17 05:18:24;;;;;;;47.15;38.25;;;;;;;26.60;53.63;101090.34;5014222;28;20128;-75
2022/08/17 05:20:49;;;;;;;56.15;39.03;;;;;;;25.52;56.72;101084.84;5015399;28;20145;-75
2022/08/17 05:23:17;;;;;;;52.75;39.80;;;;;;;25.30;58.44;101079.38;4996226;28;20092;-75
2022/08/17 05:25:49;;;;;;;46.25;38.78;;;;;;;26.03;55.79;101084.97;5013690;28;20049;-75
2022/08/17 05:28:16;;;;;;;47.40;36.78;;;;;;;26.54;53.59;101094.38;5013737;28;20223;-74
2022/08/17 05:30:42;;;;;;;46.60;37.25;;;;;;;26.08;55.16;101095.06;5014336;28;20548;-75
2022/08/17 05:33:15;;;;;;;58.50;35.78;;;;;;;25.73;55.47;101107.88;5013882;28;20044;-75
2022/08/17 05:35:45;;;;;;;44.95;34.90;;;;;;;25.92;55.46;101104.88;5013913;28;20482;-77
2022/08/17 05:38:12;;;;;;;46.13;35.65;;;;;;;26.22;54.83;101103.16;5013745;28;20061;-76
2022/08/17 05:40:37;;;;;;;41.47;33.38;;;;;;;26.36;54.11;101101.84;5013351;28;20037;-76
2022/08/17 05:43:14;;;;;;;39.47;33.72;;;;;;;26.08;55.04;101108.81;5014678;28;20078;-74
2022/08/17 05:46:17;;;;;;;40.28;32.47;;;;;;;26.56;53.57;101100.38;5013336;28;20038;-74
2022/08/17 05:48:49;;;;;;;43.05;33.45;;;;;;;26.23;54.25;101100.09;4995189;28;20533;-75
2022/08/17 05:51:33;;;;;;;42.85;32.53;;;;;;;26.53;53.50;101101.06;5022263;28;20095;-75
2022/08/17 05:54:23;;;;;;;41.50;31.98;;;;;;;26.74;52.98;101094.56;5034190;28;20041;-75
2022/08/17 05:57:10;;;;;;;41.35;33.15;;;;;;;26.39;54.50;101097.66;5033440;28;20382;-76
2022/08/17 06:00:11;;;;;;;38.40;30.42;;;;;;;25.77;56.58;101100.63;5034781;28;20040;-75
2022/08/17 06:02:42;;;;;;;39.72;31.10;;;;;;;26.22;55.56;101097.66;5018898;28;20048;-76
2022/08/17 06:05:44;;;;;;;40.47;30.85;;;;;;;25.84;56.87;101095.47;5006867;28;20043;-74
2022/08/17 06:08:47;;;;;;;35.25;28.85;;;;;;;25.77;56.81;101091.53;4994733;28;20046;-73
2022/08/17 06:11:21;;;;;;;40.28;30.65;;;;;;;25.50;57.97;101080.78;4994937;28;20038;-73
2022/08/17 06:14:06;;;;;;;41.75;29.83;;;;;;;25.94;56.44;101081.41;4994594;28;20038;-75
2022/08/17 06:16:38;;;;;;;33.55;29.10;;;;;;;25.68;57.00;101076.94;4977229;28;20167;-75
2022/08/17 06:19:39;;;;;;;37.85;28.35;;;;;;;26.68;54.11;101073.78;4994867;28;20018;-73
2022/08/17 06:22:07;;;;;;;36.00;28.42;;;;;;;26.73;53.93;101086.63;4994437;28;20058;-75
2022/08/17 06:24:36;;;;;;;34.05;26.83;;;;;;;26.41;54.66;101093.44;4996789;28;20121;-76
2022/08/17 06:27:17;;;;;;;30.75;25.05;;;;;;;27.20;52.20;101098.53;5028329;28;20042;-74
2022/08/17 06:29:53;;;;;;;37.25;26.85;;;;;;;26.61;52.77;101101.03;4998011;28;20072;-76
2022/08/17 06:32:18;;;;;;;28.88;25.42;;;;;;;26.89;51.78;101109.78;5010391;28;20035;-78
2022/08/17 06:34:45;;;;;;;28.42;23.77;;;;;;;26.52;52.61;101119.53;5016014;28;20037;-74
2022/08/17 06:37:25;;;;;;;29.02;22.95;;;;;;;26.42;53.00;101130.88;5033873;28;20033;-74
2022/08/17 06:40:20;;;;;;;27.20;24.30;;;;;;;26.61;53.02;101138.84;5017077;28;20049;-75
2022/08/17 06:42:46;;;;;;;33.90;26.77;;;;;;;25.52;56.10;101141.81;5010219;28;20041;-75
2022/08/17 06:45:33;;;;;;;28.27;23.45;;;;;;;25.54;56.38;101132.13;5011597;28;20030;-75
2022/08/17 06:48:08;;;;;;;31.17;25.42;;;;;;;25.77;55.87;101139.16;5010452;28;20044;-72
2022/08/17 06:50:43;;;;;;;33.53;25.75;;;;;;;26.02;55.69;101126.59;5010358;28;20041;-71
2022/08/17 06:53:46;;;;;;;31.13;24.13;;;;;;;25.91;55.70;101131.59;5010338;28;20042;-72
2022/08/17 06:56:20;;;;;;;27.50;23.67;;;;;;;25.96;55.35;101139.69;5009813;28;20038;-65
2022/08/17 06:58:47;;;;;;;30.48;23.42;;;;;;;25.55;57.16;101149.44;4996146;28;20557;-65
2022/08/17 07:01:15;;;;;;;26.45;23.48;;;;;;;26.19;55.42;101140.44;4998211;28;20088;-64
2022/08/17 07:03:53;;;;;;;31.33;25.88;;;;;;;26.30;55.12;101130.72;5012158;28;20045;-65
2022/08/17 07:06:34;;;;;;;31.63;24.00;;;;;;;26.17;55.58;101117.91;5012012;28;20030;-64
2022/08/17 07:09:06;;;;;;;33.13;25.60;;;;;;;26.00;55.61;101124.16;5011028;28;20069;-64
2022/08/17 07:11:50;;;;;;;27.73;22.27;;;;;;;26.61;53.87;101116.78;5008451;28;20486;-65
2022/08/17 07:14:36;;;;;;;25.52;22.77;;;;;;;25.54;57.10;101123.03;5011668;28;20100;-65
2022/08/17 07:17:14;;;;;;;27.73;23.10;;;;;;;26.14;55.20;101120.50;5011372;28;20089;-66
2022/08/17 07:19:44;;;;;;;33.72;25.67;;;;;;;26.10;55.32;101125.84;5011948;28;20629;-65
2022/08/17 07:22:12;;;;;;;31.52;24.52;;;;;;;25.92;56.01;101115.88;5011818;28;20042;-64
2022/08/17 07:24:59;;;;;;;32.50;25.58;;;;;;;25.33;58.05;101111.78;5011845;28;20258;-65
2022/08/17 07:27:37;;;;;;;32.38;27.00;;;;;;;25.52;57.17;101120.63;5010048;28;20449;-64
2022/08/17 07:30:02;;;;;;;30.73;26.38;;;;;;;26.05;56.09;101123.19;5011430;28;20134;-64
2022/08/17 07:32:36;;;;;;;32.08;26.60;;;;;;;26.01;56.44;101135.97;5011531;28;20117;-64
2022/08/17 07:35:17;;;;;;;31.70;25.00;;;;;;;25.89;56.42;101127.53;5011641;28;20045;-64
2022/08/17 07:38:10;;;;;;;29.88;24.55;;;;;;;26.16;55.93;101129.25;5011619;28;20566;-65
2022/08/17 07:40:39;;;;;;;38.35;28.55;;;;;;;26.25;56.27;101141.09;5010599;28;20486;-64
2022/08/17 07:43:15;;;;;;;34.45;26.85;;;;;;;26.09;56.19;101138.81;5011503;28;20061;-63
2022/08/17 07:48:38;;;;;;;30.70;24.33;;;;;;;26.06;56.49;101142.19;5011689;28;20099;-66
2022/08/17 07:51:39;;;;;;;32.17;26.45;;;;;;;26.84;54.12;101132.84;5011771;28;20030;-66
2022/08/17 07:54:13;;;;;;;38.83;28.10;;;;;;;25.89;57.45;101116.50;5003474;28;20153;-67
2022/08/17 07:56:46;;;;;;;37.97;26.13;;;;;;;27.06;53.56;101125.50;4991628;28;20140;-66
2022/08/17 07:59:24;;;;;;;27.90;22.63;;;;;;;27.71;50.59;101140.53;4991606;28;20521;-66
2022/08/17 08:01:55;;;;;;;26.65;22.58;;;;;;;26.60;53.13;101139.97;4991961;28;20030;-73
2022/08/17 08:04:33;;;;;;;23.83;21.25;;;;;;;27.24;51.49;101149.16;4991817;28;20046;-74
2022/08/17 08:07:12;;;;;;;36.65;22.33;;;;;;;27.25;52.05;101136.97;4992452;28;20106;-75
2022/08/17 08:09:40;;;;;;;25.38;21.88;;;;;;;27.40;51.90;101140.03;4994551;28;20077;-73
2022/08/17 08:12:28;;;;;;;25.42;21.42;;;;;;;27.48;51.46;101146.66;4994885;28;20046;-74
2022/08/17 08:15:17;;;;;;;29.17;21.92;;;;;;;27.76;50.34;101140.38;5030044;28;20033;-73
2022/08/17 08:17:54;;;;;;;30.50;21.63;;;;;;;26.79;52.46;101143.25;5032966;28;20040;-78
2022/08/17 08:20:34;;;;;;;24.92;21.40;;;;;;;26.75;52.92;101145.81;5031714;28;20655;-73
2022/08/17 08:23:17;;;;;;;28.30;21.55;;;;;;;26.37;53.83;101144.84;5031634;28;20048;-73
2022/08/17 08:26:08;;;;;;;25.92;21.80;;;;;;;26.97;52.60;101141.28;5032684;28;20053;-75
2022/08/17 08:29:17;;;;;;;25.33;20.42;;;;;;;27.30;50.74;101136.81;4926428;29;20051;-74
2022/08/17 08:32:02;;;;;;;24.58;20.13;;;;;;;27.55;50.68;101144.22;4891976;29;20045;-74
2022/08/17 08:34:43;;;;;;;25.38;20.83;;;;;;;27.50;51.00;101138.84;4877222;29;20117;-72
2022/08/17 08:37:41;;;;;;;26.50;22.27;;;;;;;26.93;52.47;101141.09;4877554;29;20409;-74
2022/08/17 08:40:31;;;;;;;25.88;21.63;;;;;;;27.13;52.29;101150.63;4858394;29;20045;-74
2022/08/17 08:43:21;;;;;;;26.92;21.98;;;;;;;26.49;53.89;101150.53;4859071;29;20050;-74
2022/08/17 08:46:15;;;;;;;27.67;23.13;;;;;;;26.56;53.58;101155.53;4858688;29;20038;-72
2022/08/17 08:48:49;;;;;;;28.85;24.77;;;;;;;27.19;52.07;101150.13;4859235;29;20136;-72
2022/08/17 08:51:56;;;;;;;27.08;22.45;;;;;;;27.25;52.69;101142.50;4873653;29;20189;-75
2022/08/17 08:54:21;;;;;;;27.80;22.35;;;;;;;26.91;53.16;101148.88;4852725;29;20128;-73
2022/08/17 08:56:52;;;;;;;27.95;22.33;;;;;;;28.45;49.16;101153.78;4859262;29;20548;-71
2022/08/17 08:59:34;;;;;;;23.85;20.58;;;;;;;28.99;46.97;101157.41;4858826;29;20548;-75
2022/08/17 09:02:33;;;;;;;23.42;20.13;;;;;;;29.41;46.11;101156.97;4843448;29;20049;-74
2022/08/17 09:05:24;;;;;;;28.20;21.95;;;;;;;28.25;48.61;101165.63;4878749;29;20126;-76
2022/08/17 09:08:09;;;;;;;30.25;22.50;;;;;;;28.17;48.65;101167.31;4941344;29;20146;-75
2022/08/17 09:10:58;;;;;;;27.52;20.00;;;;;;;28.22;48.38;101164.34;4953956;29;20027;-73
2022/08/17 09:13:49;;;;;;;30.55;21.65;;;;;;;27.70;49.90;101171.25;4949105;29;20051;-74
2022/08/17 09:16:21;;;;;;;26.75;20.90;;;;;;;28.41;48.55;101166.66;4935580;29;20425;-74
2022/08/17 09:18:52;;;;;;;25.30;21.90;;;;;;;28.54;48.20;101165.56;4949242;28;20035;-74
2022/08/17 09:21:51;;;;;;;25.08;21.80;;;;;;;28.91;47.41;101164.66;4951814;29;20102;-72
2022/08/17 09:24:26;;;;;;;29.25;21.67;;;;;;;28.83;47.70;101171.06;4932998;29;20389;-74
2022/08/17 09:27:31;;;;;;;30.88;21.80;;;;;;;27.88;50.32;101158.19;4931378;29;20102;-74
2022/08/17 09:30:06;;;;;;;25.98;22.52;;;;;;;28.68;48.86;101157.84;4905755;29;20580;-76
2022/08/17 09:32:32;;;;;;;27.50;23.70;;;;;;;28.30;49.54;101160.72;4903058;29;20529;-74
2022/08/17 09:35:13;;;;;;;26.60;23.73;;;;;;;28.81;47.85;101162.28;4903917;29;20116;-73
2022/08/17 09:38:09;;;;;;;35.55;23.08;;;;;;;28.47;48.98;101162.53;4903786;29;20079;-75
2022/08/17 09:40:55;;;;;;;27.17;23.05;;;;;;;28.33;49.33;101162.81;4902294;29;20131;-73
2022/08/17 09:43:34;;;;;;;26.42;22.70;;;;;;;28.66;49.08;101162.09;4905370;29;20115;-74
2022/08/17 09:46:07;;;;;;;31.45;24.92;;;;;;;28.59;48.94;101163.47;4914363;29;20497;-73
2022/08/17 09:48:55;;;;;;;27.15;23.35;;;;;;;28.53;49.63;101156.47;4895693;29;20052;-75
2022/08/17 09:51:29;;;;;;;32.63;26.48;;;;;;;27.72;51.38;101164.28;4875612;29;20378;-76
2022/08/17 09:53:56;;;;;;;28.67;24.40;;;;;;;28.97;48.53;101166.03;4923639;29;20048;-75
2022/08/17 09:56:37;;;;;;;32.28;24.98;;;;;;;28.43;49.73;101170.72;4929152;29;20042;-73
2022/08/17 09:59:20;;;;;;;29.75;26.48;;;;;;;28.88;49.06;101165.31;4929330;29;20232;-74
2022/08/17 10:01:50;;;;;;;28.33;24.23;;;;;;;28.79;49.27;101161.00;4929952;29;20040;-73
2022/08/17 10:04:31;;;;;;;31.60;25.33;;;;;;;29.43;47.80;101156.59;4929298;28;20487;-74
2022/08/17 10:07:24;;;;;;;32.22;24.35;;;;;;;28.79;49.35;101161.00;4990370;28;20030;-73
2022/08/17 10:10:14;;;;;;;27.55;23.48;;;;;;;28.89;49.08;101164.19;4975597;28;20054;-75
2022/08/17 10:13:12;;;;;;;38.08;26.88;;;;;;;28.58;49.52;101158.25;4984593;28;20050;-73
2022/08/17 10:15:51;;;;;;;29.48;25.98;;;;;;;28.67;49.70;101161.75;4989694;28;20498;-75
2022/08/17 10:18:20;;;;;;;28.58;24.38;;;;;;;29.59;47.79;101153.97;4989369;28;20546;-74
2022/08/17 10:26:11;;;;;;;30.70;25.15;;;;;;;28.92;49.01;101152.41;4996430;28;20088;-73
2022/08/17 10:26:30;;;;;;;35.60;25.30;;;;;;;29.40;47.83;101147.03;5024205;28;20550;-65
2022/08/17 10:29:08;;;;;;;32.63;24.80;;;;;;;29.57;47.61;101145.19;5029420;28;20097;-66
2022/08/17 10:31:40;;;;;;;30.80;24.80;;;;;;;29.61;47.07;101146.94;5028417;28;20041;-65
2022/08/17 10:34:47;;;;;;;27.38;24.45;;;;;;;30.10;46.41;101150.53;5025175;28;20038;-65
2022/08/17 10:37:31;;;;;;;29.23;24.63;;;;;;;29.52;47.16;101149.81;5026723;28;20069;-66
2022/08/17 10:40:16;;;;;;;31.10;25.60;;;;;;;29.09;48.20;101148.69;5028118;28;20033;-66
2022/08/17 10:42:50;;;;;;;30.33;25.85;;;;;;;28.33;49.97;101148.16;5024977;28;20544;-65
2022/08/17 10:45:32;;;;;;;28.70;24.80;;;;;;;29.53;47.60;101150.63;5028154;28;20048;-65
2022/08/17 10:48:19;;;;;;;32.72;25.50;;;;;;;29.26;48.16;101146.56;5027363;28;20116;-64
2022/08/17 10:51:08;;;;;;;29.15;25.95;;;;;;;29.64;47.31;101153.75;5027248;28;20030;-68
2022/08/17 10:53:42;;;;;;;34.30;26.20;;;;;;;29.47;47.27;101152.00;5027797;28;20124;-65
2022/08/17 10:56:10;;;;;;;34.05;27.83;;;;;;;29.44;48.10;101147.94;5024987;28;20130;-65
2022/08/17 10:58:37;;;;;;;38.30;27.20;;;;;;;29.28;48.35;101140.66;5020631;28;20841;-65
2022/08/17 11:01:03;;;;;;;31.48;26.90;;;;;;;29.46;47.96;101134.56;5009011;28;20044;-64
2022/08/17 11:03:31;;;;;;;32.50;26.50;;;;;;;29.29;48.97;101140.31;5014576;28;20038;-65
2022/08/17 11:06:41;;;;;;;30.92;26.05;;;;;;;29.95;47.51;101135.44;5026354;28;20036;-67
2022/08/17 11:09:34;;;;;;;30.23;26.08;;;;;;;29.93;47.08;101131.38;4981473;28;20553;-67
2022/08/17 11:12:06;;;;;;;33.63;27.52;;;;;;;29.25;48.71;101130.25;4985111;28;20030;-67
2022/08/17 11:14:59;;;;;;;32.13;26.02;;;;;;;29.91;47.46;101131.75;4985410;28;20101;-66
2022/08/17 11:17:49;;;;;;;34.15;29.02;;;;;;;28.46;51.49;101127.75;4980563;28;20042;-66
2022/08/17 11:20:37;;;;;;;31.95;27.38;;;;;;;29.52;48.71;101122.09;4974306;28;20053;-66
2022/08/17 11:23:06;;;;;;;33.22;27.48;;;;;;;30.23;47.31;101125.19;4984463;28;20061;-66
2022/08/17 11:25:54;;;;;;;32.70;28.55;;;;;;;30.54;46.62;101121.81;4985644;28;20057;-67
2022/08/17 11:28:25;;;;;;;30.50;27.27;;;;;;;30.01;47.75;101116.59;4983959;28;20142;-65
2022/08/17 11:30:58;;;;;;;30.75;25.13;;;;;;;31.15;44.83;101119.56;4985950;28;20054;-65
2022/08/17 11:33:32;;;;;;;29.98;25.35;;;;;;;31.12;44.63;101118.31;4985266;28;20058;-66
2022/08/17 11:36:13;;;;;;;30.38;26.20;;;;;;;30.87;45.93;101116.84;4985339;28;20042;-66
2022/08/17 11:38:45;;;;;;;30.92;25.27;;;;;;;30.79;45.48;101115.00;4983800;28;20113;-66
2022/08/17 11:41:13;;;;;;;29.90;25.90;;;;;;;31.36;44.10;101114.56;4981997;28;20106;-64
2022/08/17 11:43:54;;;;;;;28.83;23.75;;;;;;;31.82;43.25;101116.50;4983665;28;20486;-64
2022/08/17 11:52:40;;;;;;;30.38;24.83;;;;;;;30.57;46.11;101121.09;5029723;28;20060;-63
2022/08/17 11:55:10;;;;;;;30.95;25.02;;;;;;;30.91;44.39;101114.97;4966627;28;20053;-66
2022/08/17 11:57:41;;;;;;;30.67;25.80;;;;;;;31.05;44.84;101122.88;4969629;28;20102;-65
2022/08/17 12:00:28;;;;;;;28.92;22.27;;;;;;;31.97;42.74;101120.47;4967521;28;20097;-64
2022/08/17 12:03:33;;;;;;;27.58;22.98;;;;;;;32.30;40.46;101128.34;4965821;28;20050;-66
2022/08/17 12:06:28;;;;;;;24.15;20.58;;;;;;;31.79;41.33;101130.34;4875133;29;20534;-65
2022/08/17 12:08:59;;;;;;;23.60;20.67;;;;;;;31.53;42.01;101124.56;4875165;29;20088;-67